createdAt,value
2022-10-10T00:00:23.875Z,3.10
2022-10-10T00:04:46.476Z,3.11
2022-10-10T00:08:48.539Z,3.05
2022-10-10T00:12:50.818Z,3.01
2022-10-10T00:16:52.686Z,2.95
2022-10-10T00:20:54.505Z,2.80
2022-10-10T00:24:56.133Z,2.83
2022-10-10T00:28:58.355Z,2.88
2022-10-10T00:33:00.607Z,2.88
2022-10-10T00:37:03.514Z,3.02
2022-10-10T00:41:05.802Z,2.98
2022-10-10T00:45:30.942Z,3.02
2022-10-10T00:49:36.531Z,2.90
2022-10-10T00:53:45.034Z,2.80
2022-10-10T00:57:46.940Z,2.67
2022-10-10T01:01:48.875Z,2.68
2022-10-10T01:05:51.313Z,2.48
2022-10-10T01:09:56.569Z,2.43
2022-10-10T01:14:13.350Z,2.33
2022-10-10T01:18:28.466Z,2.30
2022-10-10T01:22:40.389Z,2.20
2022-10-10T01:27:08.348Z,2.06
2022-10-10T01:31:13.896Z,2.10
2022-10-10T01:35:39.117Z,2.09
2022-10-10T01:39:56.786Z,2.03
2022-10-10T01:43:59.545Z,1.97
2022-10-10T01:48:07.113Z,1.89
2022-10-10T01:52:43.965Z,1.86
2022-10-10T01:56:56.664Z,1.79
2022-10-10T02:01:08.109Z,1.85
2022-10-10T02:05:20.170Z,1.70
2022-10-10T02:09:32.104Z,1.68
2022-10-10T02:13:44.307Z,1.68
2022-10-10T02:17:48.143Z,1.60
2022-10-10T02:21:52.317Z,1.55
2022-10-10T02:25:56.733Z,1.58
2022-10-10T02:30:02.465Z,1.65
2022-10-10T02:34:11.811Z,1.76
2022-10-10T02:38:15.371Z,1.81
2022-10-10T02:42:20.712Z,1.87
2022-10-10T02:46:23.148Z,1.95
2022-10-10T02:50:26.630Z,1.97
2022-10-10T02:54:28.377Z,2.04
2022-10-10T02:58:30.601Z,2.08
2022-10-10T03:02:33.127Z,2.01
2022-10-10T03:06:35.199Z,2.05
2022-10-10T03:10:37.045Z,2.10
2022-10-10T03:14:39.144Z,2.08
2022-10-10T03:18:42.139Z,2.08
2022-10-10T03:29:40.097Z,2.24
2022-10-10T03:33:42.159Z,2.15
2022-10-10T03:37:43.822Z,2.18
2022-10-10T03:41:45.774Z,2.20
2022-10-10T03:45:50.035Z,2.09
2022-10-10T03:49:51.786Z,2.09
2022-10-10T03:53:54.514Z,2.07
2022-10-10T03:57:56.382Z,2.01
2022-10-10T04:01:58.575Z,1.93
2022-10-10T04:06:00.503Z,1.96
2022-10-10T04:10:03.125Z,1.83
2022-10-10T04:14:04.908Z,1.87
2022-10-10T04:18:07.695Z,1.96
2022-10-10T04:22:11.265Z,1.99
2022-10-10T04:26:13.167Z,2.01
2022-10-10T04:30:15.363Z,2.22
2022-10-10T04:34:17.321Z,2.18
2022-10-10T04:38:21.286Z,2.22
2022-10-10T04:42:23.417Z,2.18
2022-10-10T04:46:25.238Z,2.06
2022-10-10T04:50:27.329Z,2.12
2022-10-10T04:54:29.426Z,2.24
2022-10-10T04:58:31.585Z,2.22
2022-10-10T05:02:33.374Z,2.25
2022-10-10T05:06:35.511Z,2.30
2022-10-10T05:10:40.963Z,2.21
2022-10-10T05:14:47.298Z,2.29
2022-10-10T05:18:50.116Z,2.26
2022-10-10T05:22:52.202Z,2.16
2022-10-10T05:26:54.293Z,2.17
2022-10-10T05:30:56.216Z,2.24
2022-10-10T05:34:58.081Z,2.15
2022-10-10T05:39:01.209Z,2.23
2022-10-10T05:43:03.092Z,2.26
2022-10-10T05:47:04.842Z,2.20
2022-10-10T05:51:07.661Z,2.32
2022-10-10T05:55:09.531Z,2.39
2022-10-10T05:59:11.363Z,2.32
2022-10-10T06:03:16.814Z,2.37
2022-10-10T06:07:18.844Z,2.43
2022-10-10T06:11:22.788Z,2.64
2022-10-10T06:15:24.748Z,2.68
2022-10-10T06:19:26.451Z,2.88
2022-10-10T06:23:29.048Z,2.92
2022-10-10T06:27:30.768Z,2.98
2022-10-10T06:31:32.616Z,3.09
2022-10-10T06:35:38.179Z,3.26
2022-10-10T06:39:40.116Z,3.38
2022-10-10T06:43:41.946Z,3.57
2022-10-10T06:47:43.808Z,3.74
2022-10-10T06:51:45.465Z,3.83
2022-10-10T06:55:47.833Z,4.07
2022-10-10T06:59:49.504Z,4.21
2022-10-10T07:03:51.982Z,4.21
2022-10-10T07:07:53.934Z,4.33
2022-10-10T07:11:55.806Z,4.60
2022-10-10T07:15:57.674Z,4.74
2022-10-10T07:19:59.661Z,4.83
2022-10-10T07:24:01.493Z,5.15
2022-10-10T07:28:03.315Z,5.30
2022-10-10T07:32:05.284Z,5.48
2022-10-10T07:36:07.939Z,5.74
2022-10-10T07:40:09.792Z,5.83
2022-10-10T07:44:11.639Z,6.00
2022-10-10T07:48:13.381Z,6.10
2022-10-10T07:52:15.214Z,6.08
2022-10-10T07:56:16.933Z,6.32
2022-10-10T08:00:18.845Z,6.55
2022-10-10T08:04:21.642Z,6.77
2022-10-10T08:08:23.639Z,7.05
2022-10-10T08:12:25.496Z,7.30
2022-10-10T08:16:27.686Z,7.71
2022-10-10T08:20:29.392Z,7.99
2022-10-10T08:24:31.477Z,8.29
2022-10-10T08:28:34.444Z,8.53
2022-10-10T08:32:36.438Z,8.77
2022-10-10T08:36:38.734Z,8.90
2022-10-10T08:40:46.955Z,9.01
2022-10-10T08:44:55.461Z,9.31
2022-10-10T08:49:01.154Z,9.53
2022-10-10T08:53:43.803Z,9.88
2022-10-10T08:57:51.175Z,10.04
2022-10-10T09:02:17.959Z,10.26
2022-10-10T09:06:59.521Z,10.37
2022-10-10T09:11:33.725Z,10.71
2022-10-10T09:15:45.721Z,10.89
2022-10-10T09:20:03.232Z,11.04
2022-10-10T09:24:19.867Z,11.18
2022-10-10T09:28:44.166Z,11.08
2022-10-10T09:32:51.838Z,11.46
2022-10-10T09:36:58.495Z,11.67
2022-10-10T09:41:13.471Z,11.45
2022-10-10T09:45:26.476Z,11.70
2022-10-10T09:49:29.749Z,11.96
2022-10-10T09:53:31.573Z,12.05
2022-10-10T09:57:39.128Z,12.26
2022-10-10T10:01:40.989Z,12.37
2022-10-10T10:06:00.929Z,12.66
2022-10-10T10:10:17.263Z,12.63
2022-10-10T10:14:28.494Z,12.71
2022-10-10T10:18:31.210Z,12.72
2022-10-10T10:22:40.636Z,12.81
2022-10-10T10:26:47.579Z,12.89
2022-10-10T10:30:56.625Z,12.99
2022-10-10T10:35:03.999Z,13.20
2022-10-10T10:39:53.948Z,13.28
2022-10-10T10:44:26.679Z,13.57
2022-10-10T10:48:39.188Z,13.57
2022-10-10T10:53:22.811Z,13.87
2022-10-10T10:57:51.605Z,14.05
2022-10-10T11:02:54.166Z,14.11
2022-10-10T11:07:17.095Z,14.15
2022-10-10T11:11:21.748Z,14.09
2022-10-10T11:20:15.458Z,14.33
2022-10-10T11:24:32.536Z,14.44
2022-10-10T11:28:49.148Z,14.43
2022-10-10T11:33:09.979Z,14.58
2022-10-10T11:37:19.506Z,14.93
2022-10-10T11:41:31.704Z,14.80
2022-10-10T11:45:39.236Z,14.65
2022-10-10T11:49:55.664Z,14.69
2022-10-10T11:54:04.603Z,14.89
2022-10-10T11:58:06.530Z,14.83
2022-10-10T12:02:30.334Z,14.99
2022-10-10T12:06:47.914Z,15.05
2022-10-10T12:10:55.354Z,14.97
2022-10-10T12:15:02.107Z,15.28
2022-10-10T12:19:15.232Z,15.22
2022-10-10T12:23:31.382Z,15.36
2022-10-10T12:28:00.922Z,15.53
2022-10-10T12:32:14.863Z,15.38
2022-10-10T12:42:48.576Z,15.55
2022-10-10T12:47:15.376Z,15.66
2022-10-10T12:51:21.311Z,15.81
2022-10-10T12:55:30.569Z,15.68
2022-10-10T12:59:36.461Z,15.69
2022-10-10T13:03:44.509Z,15.61
2022-10-10T13:07:48.771Z,15.95
2022-10-10T13:11:59.291Z,16.01
2022-10-10T13:16:13.589Z,16.01
2022-10-10T13:20:32.840Z,16.23
2022-10-10T13:24:35.370Z,16.06
2022-10-10T13:28:37.296Z,15.96
2022-10-10T13:32:39.110Z,15.93
2022-10-10T13:36:41.491Z,15.93
2022-10-10T13:40:44.705Z,15.85
2022-10-10T13:44:50.227Z,15.83
2022-10-10T13:48:52.043Z,16.00
2022-10-10T13:53:25.476Z,15.85
2022-10-10T13:57:27.813Z,15.56
2022-10-10T14:01:54.650Z,15.54
2022-10-10T14:05:56.960Z,15.59
2022-10-10T14:10:04.718Z,15.67
2022-10-10T14:14:32.364Z,15.63
2022-10-10T14:18:34.130Z,15.71
2022-10-10T14:22:35.810Z,15.63
2022-10-10T14:26:37.942Z,15.70
2022-10-10T14:30:39.964Z,15.40
2022-10-10T14:34:42.441Z,15.37
2022-10-10T14:39:13.142Z,15.14
2022-10-10T14:43:16.797Z,14.84
2022-10-10T14:47:23.937Z,14.73
2022-10-10T14:51:34.821Z,14.51
2022-10-10T14:55:37.579Z,14.28
2022-10-10T14:59:47.684Z,14.11
2022-10-10T15:03:51.828Z,13.88
2022-10-10T15:07:53.853Z,13.69
2022-10-10T15:11:55.659Z,13.37
2022-10-10T15:15:57.695Z,13.16
2022-10-10T15:19:59.429Z,13.05
2022-10-10T15:24:01.235Z,12.87
2022-10-10T15:28:03.583Z,12.71
2022-10-10T15:32:05.717Z,12.50
2022-10-10T15:36:10.429Z,12.27
2022-10-10T15:40:17.444Z,12.07
2022-10-10T15:44:19.261Z,11.92
2022-10-10T15:48:21.155Z,11.94
2022-10-10T15:52:23.297Z,11.83
2022-10-10T15:56:25.752Z,11.72
2022-10-10T16:00:27.631Z,11.61
2022-10-10T16:04:29.548Z,11.38
2022-10-10T16:08:31.276Z,11.07
2022-10-10T16:12:33.119Z,10.84
2022-10-10T16:16:35.014Z,10.84
2022-10-10T16:20:38.970Z,10.83
2022-10-10T16:24:40.800Z,10.80
2022-10-10T16:28:43.445Z,10.71
2022-10-10T16:32:45.164Z,10.50
2022-10-10T16:36:46.990Z,10.38
2022-10-10T16:40:48.860Z,10.24
2022-10-10T16:44:50.743Z,10.07
2022-10-10T16:48:52.760Z,9.99
2022-10-10T16:52:54.589Z,9.84
2022-10-10T16:56:56.302Z,9.61
2022-10-10T17:01:01.246Z,9.49
2022-10-10T17:05:06.287Z,9.34
2022-10-10T17:09:09.861Z,9.34
2022-10-10T17:13:11.608Z,9.32
2022-10-10T17:17:14.020Z,9.34
2022-10-10T17:21:18.468Z,9.44
2022-10-10T17:25:20.228Z,9.43
2022-10-10T17:29:23.678Z,9.49
2022-10-10T17:33:25.613Z,9.48
2022-10-10T17:37:27.314Z,9.52
2022-10-10T17:41:29.950Z,9.55
2022-10-10T17:45:33.920Z,9.54
2022-10-10T17:49:36.092Z,9.53
2022-10-10T17:53:38.362Z,9.51
2022-10-10T17:57:40.142Z,9.45
2022-10-10T18:01:42.026Z,9.38
2022-10-10T18:05:44.171Z,9.36
2022-10-10T18:09:46.432Z,9.30
2022-10-10T18:13:48.253Z,9.27
2022-10-10T18:17:49.978Z,9.18
2022-10-10T18:21:52.213Z,9.11
2022-10-10T18:26:05.989Z,9.10
2022-10-10T18:30:08.327Z,9.07
2022-10-10T18:34:11.579Z,9.04
2022-10-10T18:38:13.346Z,9.03
2022-10-10T18:42:15.118Z,8.92
2022-10-10T18:46:19.881Z,8.92
2022-10-10T18:50:21.585Z,8.90
2022-10-10T18:54:23.565Z,8.92
2022-10-10T18:58:25.319Z,8.91
2022-10-10T19:02:27.214Z,8.85
2022-10-10T19:06:29.118Z,8.91
2022-10-10T19:10:30.903Z,8.95
2022-10-10T19:14:32.744Z,8.93
2022-10-10T19:18:35.068Z,8.88
2022-10-10T19:22:36.784Z,8.82
2022-10-10T19:26:38.993Z,8.77
2022-10-10T19:30:43.775Z,8.76
2022-10-10T19:34:46.123Z,8.64
2022-10-10T19:38:48.023Z,8.53
2022-10-10T19:42:50.022Z,8.42
2022-10-10T19:46:53.382Z,8.37
2022-10-10T19:50:55.223Z,8.32
2022-10-10T19:54:56.960Z,8.25
2022-10-10T19:59:00.735Z,8.17
2022-10-10T20:03:02.393Z,8.09
2022-10-10T20:07:04.272Z,8.11
2022-10-10T20:11:06.323Z,8.07
2022-10-10T20:15:08.492Z,8.09
2022-10-10T20:19:10.209Z,7.99
2022-10-10T20:23:12.908Z,7.95
2022-10-10T20:27:14.757Z,7.94
2022-10-10T20:31:28.958Z,7.89
2022-10-10T20:35:33.217Z,7.81
2022-10-10T20:39:35.087Z,7.86
2022-10-10T20:43:38.285Z,7.87
2022-10-10T20:47:40.137Z,7.83
2022-10-10T20:51:42.375Z,7.79
2022-10-10T20:55:44.244Z,7.73
2022-10-10T20:59:46.025Z,7.81
2022-10-10T21:03:48.469Z,7.88
2022-10-10T21:07:50.398Z,7.95
2022-10-10T21:11:52.372Z,8.00
2022-10-10T21:15:54.313Z,8.15
2022-10-10T21:19:56.746Z,8.22
2022-10-10T21:23:58.771Z,8.26
2022-10-10T21:28:00.593Z,8.35
2022-10-10T21:32:02.390Z,8.36
2022-10-10T21:36:04.593Z,8.37
2022-10-10T21:40:07.073Z,8.35
2022-10-10T21:44:10.358Z,8.35
2022-10-10T21:48:12.853Z,8.32
2022-10-10T21:52:14.672Z,8.28
2022-10-10T21:56:17.490Z,8.25
2022-10-10T22:00:20.042Z,8.19
2022-10-10T22:04:25.466Z,8.06
2022-10-10T22:08:30.096Z,7.98
2022-10-10T22:12:32.039Z,7.95
2022-10-10T22:16:34.691Z,7.95
2022-10-10T22:20:37.335Z,7.93
2022-10-10T22:24:39.375Z,7.97
2022-10-10T22:28:41.312Z,8.06
2022-10-10T22:32:43.386Z,8.03
2022-10-10T22:36:45.187Z,8.05
2022-10-10T22:40:47.465Z,8.01
2022-10-10T22:44:49.272Z,8.02
2022-10-10T22:48:51.113Z,8.06
2022-10-10T22:52:52.763Z,8.16
2022-10-10T22:56:54.823Z,8.20
2022-10-10T23:00:56.649Z,8.27
2022-10-10T23:04:59.511Z,8.35
2022-10-10T23:09:01.404Z,8.32
2022-10-10T23:13:03.415Z,8.33
2022-10-10T23:17:05.589Z,8.38
2022-10-10T23:21:07.580Z,8.46
2022-10-10T23:25:09.290Z,8.42
2022-10-10T23:29:11.064Z,8.40
2022-10-10T23:33:13.979Z,8.47
2022-10-10T23:37:15.789Z,8.41
2022-10-10T23:41:17.519Z,8.44
2022-10-10T23:45:20.280Z,8.37
2022-10-10T23:49:21.919Z,8.31
2022-10-10T23:53:23.755Z,8.24
2022-10-10T23:57:25.547Z,8.29
